createdAt,value
2017-09-14T00:00:29.914Z,0
2017-09-14T00:01:29.941Z,0
2017-09-14T00:02:30.250Z,0
2017-09-14T00:03:29.560Z,0
2017-09-14T00:04:29.926Z,0
2017-09-14T00:05:29.584Z,0
2017-09-14T00:06:30.535Z,0
2017-09-14T00:07:29.861Z,0
2017-09-14T00:08:29.868Z,0
2017-09-14T00:09:29.842Z,0
2017-09-14T00:10:29.499Z,0
2017-09-14T00:11:29.868Z,0
2017-09-14T00:12:30.142Z,0
2017-09-14T00:13:29.800Z,0
2017-09-14T00:14:30.139Z,0
2017-09-14T00:15:29.786Z,0
2017-09-14T00:16:29.817Z,0
2017-09-14T00:17:29.448Z,0
2017-09-14T00:18:29.425Z,0
2017-09-14T00:19:29.754Z,0
2017-09-14T00:20:29.749Z,0
2017-09-14T00:21:29.396Z,0
2017-09-14T00:22:29.719Z,0
2017-09-14T00:23:30.051Z,0
2017-09-14T00:24:29.703Z,0
2017-09-14T00:25:30.022Z,0
2017-09-14T00:26:29.691Z,0
2017-09-14T00:27:30.012Z,0
2017-09-14T00:28:29.704Z,0
2017-09-14T00:29:29.327Z,0
2017-09-14T00:30:29.648Z,0
2017-09-14T00:31:29.319Z,0
2017-09-14T00:32:29.656Z,0
2017-09-14T00:33:29.982Z,0
2017-09-14T00:34:29.615Z,0
2017-09-14T00:35:29.274Z,0
2017-09-14T00:36:29.615Z,0
2017-09-14T00:37:29.597Z,0
2017-09-14T00:38:29.583Z,0
2017-09-14T00:39:29.583Z,0
2017-09-14T00:40:29.228Z,0
2017-09-14T00:41:29.580Z,0
2017-09-14T00:42:29.237Z,0
2017-09-14T00:43:29.554Z,0
2017-09-14T00:44:29.524Z,0
2017-09-14T00:45:29.514Z,0
2017-09-14T00:46:29.852Z,0
2017-09-14T00:47:29.509Z,0
2017-09-14T00:48:29.524Z,0
2017-09-14T00:49:29.149Z,0
2017-09-14T00:50:29.138Z,0
2017-09-14T00:51:29.791Z,0
2017-09-14T00:52:29.128Z,0
2017-09-14T00:53:29.452Z,0
2017-09-14T00:54:29.435Z,0
2017-09-14T00:55:29.094Z,0
2017-09-14T00:56:29.123Z,0
2017-09-14T00:57:29.407Z,0
2017-09-14T00:58:29.732Z,0
2017-09-14T00:59:29.078Z,0
2017-09-14T01:00:29.718Z,0
2017-09-14T01:01:29.380Z,0
2017-09-14T01:02:29.417Z,0
2017-09-14T01:03:29.366Z,0
2017-09-14T01:04:29.041Z,0
2017-09-14T01:05:29.336Z,0
2017-09-14T01:06:29.025Z,0
2017-09-14T01:07:29.319Z,0
2017-09-14T01:08:29.354Z,0
2017-09-14T01:09:29.302Z,0
2017-09-14T01:10:29.307Z,0
2017-09-14T01:11:29.613Z,0
2017-09-14T01:12:28.994Z,0
2017-09-14T01:13:29.595Z,0
2017-09-14T01:14:28.945Z,0
2017-09-14T01:15:29.632Z,0
2017-09-14T01:16:29.595Z,0
2017-09-14T01:17:29.509Z,0
2017-09-14T01:18:29.965Z,0
2017-09-14T01:19:29.135Z,0
2017-09-14T01:20:29.687Z,0
2017-09-14T01:21:28.866Z,0
2017-09-14T01:22:29.750Z,0
2017-09-14T01:23:29.653Z,0
2017-09-14T01:24:29.603Z,0
2017-09-14T01:25:29.553Z,0
2017-09-14T01:26:29.368Z,0
2017-09-14T01:27:29.573Z,0
2017-09-14T01:28:29.134Z,0
2017-09-14T01:29:29.435Z,0
2017-09-14T01:30:29.229Z,0
2017-09-14T01:31:29.459Z,0
2017-09-14T01:32:29.876Z,0
2017-09-14T01:33:29.028Z,0
2017-09-14T01:34:29.110Z,0
2017-09-14T01:35:29.703Z,0
2017-09-14T01:36:29.106Z,0
2017-09-14T01:37:29.178Z,0
2017-09-14T01:38:29.505Z,0
2017-09-14T01:39:28.920Z,0
2017-09-14T01:40:29.394Z,0
2017-09-14T01:41:29.818Z,0
2017-09-14T01:42:29.337Z,0
2017-09-14T01:43:29.240Z,0
2017-09-14T01:44:28.924Z,0
2017-09-14T01:45:29.625Z,0
2017-09-14T01:46:29.527Z,0
2017-09-14T01:47:29.094Z,0
2017-09-14T01:48:29.404Z,0
2017-09-14T01:49:29.022Z,0
2017-09-14T01:50:29.356Z,0
2017-09-14T01:51:28.938Z,0
2017-09-14T01:52:28.973Z,0
2017-09-14T01:53:28.628Z,0
2017-09-14T01:54:29.146Z,0
2017-09-14T01:55:28.564Z,0
2017-09-14T01:56:29.352Z,0
2017-09-14T01:57:29.605Z,0
2017-09-14T01:58:29.245Z,0
2017-09-14T01:59:29.127Z,0
2017-09-14T02:00:29.154Z,0
2017-09-14T02:01:28.881Z,0
2017-09-14T02:02:29.196Z,0
2017-09-14T02:03:28.498Z,0
2017-09-14T02:04:28.821Z,0
2017-09-14T02:05:28.482Z,0
2017-09-14T02:06:28.801Z,0
2017-09-14T02:07:29.124Z,0
2017-09-14T02:08:28.789Z,0
2017-09-14T02:09:28.775Z,0
2017-09-14T02:10:28.436Z,0
2017-09-14T02:11:28.757Z,0
2017-09-14T02:12:28.418Z,0
2017-09-14T02:13:28.412Z,0
2017-09-14T02:14:28.730Z,0
2017-09-14T02:15:28.393Z,0
2017-09-14T02:16:28.389Z,0
2017-09-14T02:17:28.379Z,0
2017-09-14T02:18:29.350Z,0
2017-09-14T02:19:28.371Z,0
2017-09-14T02:20:28.676Z,0
2017-09-14T02:21:28.686Z,0
2017-09-14T02:22:28.664Z,0
2017-09-14T02:23:29.016Z,0
2017-09-14T02:24:28.322Z,0
2017-09-14T02:25:28.659Z,0
2017-09-14T02:26:28.664Z,0
2017-09-14T02:27:28.287Z,0
2017-09-14T02:28:29.275Z,0
2017-09-14T02:29:28.293Z,0
2017-09-14T02:30:28.916Z,0
2017-09-14T02:31:28.590Z,0
2017-09-14T02:32:28.910Z,0
2017-09-14T02:33:28.580Z,0
2017-09-14T02:34:28.238Z,0
2017-09-14T02:35:28.576Z,0
2017-09-14T02:36:28.557Z,0
2017-09-14T02:37:28.201Z,0
2017-09-14T02:38:28.207Z,0
2017-09-14T02:39:28.844Z,0
2017-09-14T02:40:28.833Z,0
2017-09-14T02:41:28.824Z,0
2017-09-14T02:42:28.832Z,0
2017-09-14T02:43:28.524Z,0
2017-09-14T02:44:28.483Z,0
2017-09-14T02:45:28.470Z,0
2017-09-14T02:46:30.087Z,0
2017-09-14T02:47:28.770Z,0
2017-09-14T02:48:28.784Z,0
2017-09-14T02:49:28.115Z,0
2017-09-14T02:50:28.089Z,0
2017-09-14T02:51:28.408Z,0
2017-09-14T02:52:28.105Z,0
2017-09-14T02:53:28.392Z,0
2017-09-14T02:54:28.713Z,0
2017-09-14T02:55:28.371Z,0
2017-09-14T02:56:28.395Z,0
2017-09-14T02:57:28.359Z,0
2017-09-14T02:58:29.002Z,0
2017-09-14T02:59:28.340Z,0
2017-09-14T03:00:28.025Z,0
2017-09-14T03:01:28.649Z,0
2017-09-14T03:02:27.985Z,0
2017-09-14T03:03:27.988Z,0
2017-09-14T03:04:28.970Z,0
2017-09-14T03:05:27.976Z,0
2017-09-14T03:06:27.965Z,0
2017-09-14T03:07:28.269Z,0
2017-09-14T03:08:28.260Z,0
2017-09-14T03:09:28.249Z,0
2017-09-14T03:10:28.248Z,0
2017-09-14T03:11:28.245Z,0
2017-09-14T03:12:27.943Z,0
2017-09-14T03:13:27.904Z,0
2017-09-14T03:14:28.215Z,0
2017-09-14T03:15:28.216Z,0
2017-09-14T03:16:27.873Z,0
2017-09-14T03:17:28.866Z,0
2017-09-14T03:18:28.185Z,0
2017-09-14T03:19:28.174Z,0
2017-09-14T03:20:28.487Z,0
2017-09-14T03:21:28.501Z,0
2017-09-14T03:22:28.153Z,0
2017-09-14T03:23:28.137Z,0
2017-09-14T03:24:28.493Z,0
2017-09-14T03:25:28.112Z,0
2017-09-14T03:26:28.126Z,0
2017-09-14T03:27:28.449Z,0
2017-09-14T03:28:27.770Z,0
2017-09-14T03:29:28.082Z,0
2017-09-14T03:30:28.411Z,0
2017-09-14T03:31:28.391Z,0
2017-09-14T03:32:28.082Z,0
2017-09-14T03:33:28.047Z,0
2017-09-14T03:34:28.036Z,0
2017-09-14T03:35:28.034Z,0
2017-09-14T03:36:28.454Z,0
2017-09-14T03:37:28.061Z,0
2017-09-14T03:38:28.332Z,0
2017-09-14T03:39:27.998Z,0
2017-09-14T03:40:28.313Z,0
2017-09-14T03:41:27.984Z,0
2017-09-14T03:42:27.650Z,0
2017-09-14T03:43:27.954Z,0
2017-09-14T03:44:28.294Z,0
2017-09-14T03:45:27.943Z,0
2017-09-14T03:46:27.935Z,0
2017-09-14T03:47:27.925Z,0
2017-09-14T03:48:27.611Z,0
2017-09-14T03:49:28.262Z,0
2017-09-14T03:50:28.566Z,0
2017-09-14T03:51:27.562Z,0
2017-09-14T03:52:28.711Z,0
2017-09-14T03:53:28.207Z,0
2017-09-14T03:54:27.883Z,0
2017-09-14T03:55:28.520Z,0
2017-09-14T03:56:28.188Z,0
2017-09-14T03:57:27.528Z,0
2017-09-14T03:58:27.828Z,0
2017-09-14T03:59:28.168Z,0
2017-09-14T04:00:28.139Z,0
2017-09-14T04:01:27.800Z,0
2017-09-14T04:02:27.799Z,0
2017-09-14T04:03:27.787Z,0
2017-09-14T04:04:27.475Z,0
2017-09-14T04:05:27.447Z,0
2017-09-14T04:06:27.812Z,0
2017-09-14T04:07:27.417Z,0
2017-09-14T04:08:27.763Z,0
2017-09-14T04:09:27.730Z,0
2017-09-14T04:10:27.394Z,0
2017-09-14T04:11:27.388Z,0
2017-09-14T04:12:27.387Z,0
2017-09-14T04:13:27.706Z,0
2017-09-14T04:14:27.971Z,0
2017-09-14T04:15:27.351Z,0
2017-09-14T04:16:27.681Z,0
2017-09-14T04:17:27.348Z,0
2017-09-14T04:18:28.009Z,0
2017-09-14T04:19:27.648Z,0
2017-09-14T04:20:27.977Z,0
2017-09-14T04:21:28.005Z,4
2017-09-14T04:22:27.623Z,4
2017-09-14T04:23:27.945Z,4
2017-09-14T04:24:27.954Z,0
2017-09-14T04:25:27.926Z,4
2017-09-14T04:26:27.260Z,4
2017-09-14T04:27:27.589Z,8
2017-09-14T04:28:27.568Z,4
2017-09-14T04:29:27.233Z,8
2017-09-14T04:30:27.902Z,8
2017-09-14T04:31:27.214Z,8
2017-09-14T04:32:27.882Z,16
2017-09-14T04:33:27.525Z,16
2017-09-14T04:34:27.188Z,20
2017-09-14T04:35:27.177Z,20
2017-09-14T04:36:27.833Z,24
2017-09-14T04:37:27.496Z,28
2017-09-14T04:38:27.482Z,32
2017-09-14T04:39:27.807Z,32
2017-09-14T04:40:27.466Z,40
2017-09-14T04:41:27.789Z,44
2017-09-14T04:42:27.776Z,48
2017-09-14T04:43:27.766Z,52
2017-09-14T04:44:27.498Z,52
2017-09-14T04:45:27.445Z,48
2017-09-14T04:46:27.082Z,52
2017-09-14T04:47:27.406Z,64
2017-09-14T04:48:27.078Z,72
2017-09-14T04:49:27.387Z,84
2017-09-14T04:50:27.712Z,96
2017-09-14T04:51:28.044Z,112
2017-09-14T04:52:28.034Z,132
2017-09-14T04:53:27.360Z,140
2017-09-14T04:54:27.343Z,140
2017-09-14T04:55:28.019Z,148
2017-09-14T04:56:26.996Z,148
2017-09-14T04:57:26.987Z,164
2017-09-14T04:58:27.304Z,172
2017-09-14T04:59:27.978Z,168
2017-09-14T05:00:27.304Z,176
2017-09-14T05:01:27.632Z,188
2017-09-14T05:02:27.596Z,200
2017-09-14T05:03:27.271Z,216
2017-09-14T05:04:26.943Z,248
2017-09-14T05:05:26.942Z,272
2017-09-14T05:06:26.914Z,288
2017-09-14T05:07:26.927Z,304
2017-09-14T05:08:26.899Z,300
2017-09-14T05:09:27.533Z,328
2017-09-14T05:10:27.533Z,428
2017-09-14T05:11:27.217Z,492
2017-09-14T05:12:27.184Z,448
2017-09-14T05:13:26.847Z,468
2017-09-14T05:14:26.838Z,368
2017-09-14T05:15:27.497Z,296
2017-09-14T05:16:27.194Z,308
2017-09-14T05:17:27.475Z,348
2017-09-14T05:18:27.177Z,428
2017-09-14T05:19:27.465Z,456
2017-09-14T05:20:27.109Z,424
2017-09-14T05:21:27.112Z,380
2017-09-14T05:22:27.109Z,392
2017-09-14T05:23:27.413Z,408
2017-09-14T05:24:27.121Z,472
2017-09-14T05:25:27.725Z,528
2017-09-14T05:26:27.435Z,624
2017-09-14T05:27:26.719Z,620
2017-09-14T05:28:27.045Z,528
2017-09-14T05:29:27.028Z,600
2017-09-14T05:30:27.361Z,660
2017-09-14T05:31:27.015Z,592
2017-09-14T05:32:27.003Z,576
2017-09-14T05:33:26.994Z,600
2017-09-14T05:34:26.657Z,664
2017-09-14T05:35:26.670Z,728
2017-09-14T05:36:27.637Z,772
2017-09-14T05:37:26.630Z,800
2017-09-14T05:38:26.951Z,752
2017-09-14T05:39:26.939Z,740
2017-09-14T05:40:26.605Z,772
2017-09-14T05:41:26.599Z,772
2017-09-14T05:42:26.913Z,836
2017-09-14T05:43:27.237Z,980
2017-09-14T05:44:26.920Z,964
2017-09-14T05:45:27.225Z,1008
2017-09-14T05:46:26.876Z,1048
2017-09-14T05:47:26.870Z,1060
2017-09-14T05:48:26.864Z,1172
2017-09-14T05:49:26.850Z,1184
2017-09-14T05:50:26.516Z,1208
2017-09-14T05:51:27.163Z,1236
2017-09-14T05:52:26.852Z,1356
2017-09-14T05:53:26.490Z,1424
2017-09-14T05:54:26.810Z,1536
2017-09-14T05:55:26.469Z,1724
2017-09-14T05:56:26.482Z,1908
2017-09-14T05:57:27.112Z,2036
2017-09-14T05:58:26.778Z,1844
2017-09-14T05:59:27.105Z,1800
2017-09-14T06:00:26.770Z,1768
2017-09-14T06:01:26.417Z,1704
2017-09-14T06:02:26.410Z,1788
2017-09-14T06:03:26.413Z,2160
2017-09-14T06:04:26.420Z,2180
2017-09-14T06:05:27.060Z,2164
2017-09-14T06:06:27.054Z,2168
2017-09-14T06:07:26.377Z,2008
2017-09-14T06:08:27.015Z,1936
2017-09-14T06:09:26.679Z,1892
2017-09-14T06:10:26.354Z,1844
2017-09-14T06:11:26.332Z,1928
2017-09-14T06:12:26.647Z,1984
2017-09-14T06:13:26.986Z,2052
2017-09-14T06:14:26.643Z,2056
2017-09-14T06:15:27.007Z,2052
2017-09-14T06:16:26.283Z,2120
2017-09-14T06:17:26.611Z,2280
2017-09-14T06:18:26.269Z,2700
2017-09-14T06:19:26.583Z,2560
2017-09-14T06:20:26.582Z,2384
2017-09-14T06:21:26.569Z,2272
2017-09-14T06:22:26.895Z,2392
2017-09-14T06:23:26.240Z,2580
2017-09-14T06:24:26.879Z,2648
2017-09-14T06:25:26.546Z,2600
2017-09-14T06:26:26.201Z,2556
2017-09-14T06:27:26.517Z,2536
2017-09-14T06:28:26.199Z,2536
2017-09-14T06:29:26.853Z,2744
2017-09-14T06:30:26.173Z,2924
2017-09-14T06:31:26.485Z,3136
2017-09-14T06:32:26.495Z,3192
2017-09-14T06:33:26.153Z,3200
2017-09-14T06:34:26.474Z,3472
2017-09-14T06:35:26.455Z,3456
2017-09-14T06:36:26.437Z,3468
2017-09-14T06:37:26.440Z,3428
2017-09-14T06:38:26.102Z,3224
2017-09-14T06:39:26.435Z,3016
2017-09-14T06:40:26.090Z,3040
2017-09-14T06:41:26.448Z,3312
2017-09-14T06:42:26.059Z,3308
2017-09-14T06:43:26.728Z,3096
2017-09-14T06:44:26.702Z,3388
2017-09-14T06:45:26.365Z,3268
2017-09-14T06:46:26.685Z,3460
2017-09-14T06:47:26.379Z,3780
2017-09-14T06:48:26.337Z,3520
2017-09-14T06:49:26.326Z,3404
2017-09-14T06:50:26.319Z,3644
2017-09-14T06:51:26.308Z,3580
2017-09-14T06:52:25.975Z,3608
2017-09-14T06:53:26.655Z,3736
2017-09-14T06:54:26.299Z,4048
2017-09-14T06:55:26.273Z,4528
2017-09-14T06:56:25.937Z,4280
2017-09-14T06:57:25.929Z,4336
2017-09-14T06:58:26.595Z,4100
2017-09-14T06:59:26.616Z,4132
2017-09-14T07:00:26.250Z,4488
2017-09-14T07:01:26.263Z,4744
2017-09-14T07:02:26.216Z,4592
2017-09-14T07:03:26.538Z,4416
2017-09-14T07:04:25.870Z,4372
2017-09-14T07:05:26.187Z,4616
2017-09-14T07:06:26.193Z,4776
2017-09-14T07:07:25.846Z,4988
2017-09-14T07:08:25.850Z,4772
2017-09-14T07:09:26.508Z,4580
2017-09-14T07:10:26.146Z,4688
2017-09-14T07:11:25.895Z,4824
2017-09-14T07:12:26.127Z,4800
2017-09-14T07:13:26.143Z,5032
2017-09-14T07:14:26.470Z,5164
2017-09-14T07:15:26.439Z,5336
2017-09-14T07:16:26.445Z,5524
2017-09-14T07:17:25.771Z,5324
2017-09-14T07:18:26.079Z,4964
2017-09-14T07:19:25.746Z,4864
2017-09-14T07:20:25.774Z,4784
2017-09-14T07:21:26.066Z,4788
2017-09-14T07:22:25.718Z,4836
2017-09-14T07:23:26.386Z,4868
2017-09-14T07:24:26.350Z,5068
2017-09-14T07:25:26.019Z,5380
2017-09-14T07:26:26.009Z,5676
2017-09-14T07:27:26.001Z,5456
2017-09-14T07:28:26.008Z,5532
2017-09-14T07:29:26.337Z,5712
2017-09-14T07:30:26.306Z,6628
2017-09-14T07:31:25.964Z,7016
2017-09-14T07:32:25.961Z,6364
2017-09-14T07:33:25.621Z,6424
2017-09-14T07:34:25.614Z,7412
2017-09-14T07:35:25.599Z,8596
2017-09-14T07:36:25.596Z,7916
2017-09-14T07:37:25.914Z,8068
2017-09-14T07:38:25.908Z,8604
2017-09-14T07:39:25.766Z,8632
2017-09-14T07:40:26.076Z,7620
2017-09-14T07:41:25.763Z,7656
2017-09-14T07:42:26.399Z,7856
2017-09-14T07:43:25.894Z,7756
2017-09-14T07:44:26.202Z,8100
2017-09-14T07:45:25.851Z,8196
2017-09-14T07:46:25.512Z,8276
2017-09-14T07:47:25.516Z,8704
2017-09-14T07:48:26.183Z,8964
2017-09-14T07:49:25.490Z,9324
2017-09-14T07:50:25.877Z,8508
2017-09-14T07:51:26.160Z,7776
2017-09-14T07:52:25.790Z,7780
2017-09-14T07:53:25.786Z,8260
2017-09-14T07:54:25.798Z,8668
2017-09-14T07:55:26.120Z,9976
2017-09-14T07:56:25.755Z,10132
2017-09-14T07:57:25.425Z,9744
2017-09-14T07:58:25.413Z,9428
2017-09-14T07:59:25.737Z,9756
2017-09-14T08:00:25.770Z,10524
2017-09-14T08:01:25.737Z,10104
2017-09-14T08:02:26.050Z,10060
2017-09-14T08:03:25.375Z,10280
2017-09-14T08:04:26.028Z,10728
2017-09-14T08:05:25.718Z,10312
2017-09-14T08:06:25.375Z,9260
2017-09-14T08:07:25.688Z,9236
2017-09-14T08:08:26.049Z,9948
2017-09-14T08:09:25.660Z,10316
2017-09-14T08:10:25.986Z,10800
2017-09-14T08:11:25.651Z,10816
2017-09-14T08:12:25.984Z,10452
2017-09-14T08:13:25.304Z,10140
2017-09-14T08:14:25.631Z,9736
2017-09-14T08:15:25.283Z,9476
2017-09-14T08:16:25.930Z,9492
2017-09-14T08:17:25.600Z,9272
2017-09-14T08:18:25.601Z,9236
2017-09-14T08:19:25.606Z,9252
2017-09-14T08:20:25.251Z,9452
2017-09-14T08:21:25.906Z,9200
2017-09-14T08:22:25.894Z,9036
2017-09-14T08:23:25.575Z,9240
2017-09-14T08:24:25.887Z,9560
2017-09-14T08:25:25.224Z,10004
2017-09-14T08:26:25.534Z,9732
2017-09-14T08:27:25.545Z,9192
2017-09-14T08:28:25.526Z,8352
2017-09-14T08:29:25.183Z,7364
2017-09-14T08:30:25.521Z,7240
2017-09-14T08:31:25.167Z,7028
2017-09-14T08:32:25.816Z,7376
2017-09-14T08:33:25.493Z,7520
2017-09-14T08:34:25.143Z,7408
2017-09-14T08:35:25.831Z,7036
2017-09-14T08:36:25.461Z,6932
2017-09-14T08:37:25.136Z,6944
2017-09-14T08:38:25.817Z,7260
2017-09-14T08:39:25.114Z,7348
2017-09-14T08:40:25.142Z,7108
2017-09-14T08:41:25.768Z,6920
2017-09-14T08:42:25.134Z,7212
2017-09-14T08:43:25.744Z,7996
2017-09-14T08:44:25.081Z,8560
2017-09-14T08:45:25.394Z,8892
2017-09-14T08:46:25.395Z,9916
2017-09-14T08:47:25.744Z,10208
2017-09-14T08:48:25.060Z,9996
2017-09-14T08:49:25.359Z,10356
2017-09-14T08:50:26.015Z,10144
2017-09-14T08:51:25.357Z,9864
2017-09-14T08:52:25.676Z,9724
2017-09-14T08:53:25.659Z,9448
2017-09-14T08:54:24.996Z,9184
2017-09-14T08:55:25.331Z,8904
2017-09-14T08:56:25.309Z,8672
2017-09-14T08:57:25.318Z,8320
2017-09-14T08:58:24.969Z,8252
2017-09-14T08:59:25.287Z,9076
2017-09-14T09:00:25.306Z,9352
2017-09-14T09:01:25.279Z,9524
2017-09-14T09:02:25.319Z,9532
2017-09-14T09:03:25.917Z,9484
2017-09-14T09:04:25.263Z,9320
2017-09-14T09:05:24.912Z,8980
2017-09-14T09:06:25.267Z,8216
2017-09-14T09:07:25.223Z,8136
2017-09-14T09:08:25.217Z,7964
2017-09-14T09:09:25.215Z,7856
2017-09-14T09:10:24.890Z,7768
2017-09-14T09:11:25.519Z,7140
2017-09-14T09:12:24.859Z,7840
2017-09-14T09:13:25.507Z,8472
2017-09-14T09:14:25.173Z,8648
2017-09-14T09:15:24.836Z,8912
2017-09-14T09:16:25.157Z,8692
2017-09-14T09:17:30.930Z,8616
2017-09-14T09:18:25.151Z,8616
2017-09-14T09:19:25.133Z,8300
2017-09-14T09:20:24.800Z,7840
2017-09-14T09:21:25.478Z,7572
2017-09-14T09:22:25.110Z,7168
2017-09-14T09:23:25.106Z,7008
2017-09-14T09:24:25.098Z,7532
2017-09-14T09:25:25.430Z,7368
2017-09-14T09:26:25.092Z,7408
2017-09-14T09:27:24.743Z,7728
2017-09-14T09:28:25.067Z,8740
2017-09-14T09:29:24.754Z,10228
2017-09-14T09:30:24.740Z,11468
2017-09-14T09:31:25.045Z,11764
2017-09-14T09:32:25.043Z,11760
2017-09-14T09:33:25.024Z,11808
2017-09-14T09:34:25.028Z,11196
2017-09-14T09:35:24.693Z,10416
2017-09-14T09:36:25.005Z,10848
2017-09-14T09:37:24.671Z,10628
2017-09-14T09:38:24.660Z,10804
2017-09-14T09:39:24.983Z,11328
2017-09-14T09:40:24.975Z,11852
2017-09-14T09:41:24.641Z,11244
2017-09-14T09:42:25.629Z,10244
2017-09-14T09:43:24.953Z,9712
2017-09-14T09:44:25.340Z,9820
2017-09-14T09:45:25.263Z,9752
2017-09-14T09:46:25.586Z,9308
2017-09-14T09:47:24.597Z,8584
2017-09-14T09:48:24.585Z,7816
2017-09-14T09:49:24.926Z,7420
2017-09-14T09:50:24.900Z,6924
2017-09-14T09:51:25.247Z,6152
2017-09-14T09:52:24.887Z,5412
2017-09-14T09:53:25.216Z,5168
2017-09-14T09:54:25.197Z,5384
2017-09-14T09:55:25.518Z,5376
2017-09-14T09:56:25.205Z,5256
2017-09-14T09:57:25.608Z,5304
2017-09-14T09:58:24.856Z,5612
2017-09-14T09:59:24.859Z,5900
2017-09-14T10:00:24.514Z,5672
2017-09-14T10:01:25.138Z,5112
2017-09-14T10:02:24.836Z,4876
2017-09-14T10:03:24.799Z,5168
2017-09-14T10:04:24.785Z,6292
2017-09-14T10:05:24.797Z,7552
2017-09-14T10:06:24.787Z,8400
2017-09-14T10:07:24.758Z,8384
2017-09-14T10:08:24.752Z,8544
2017-09-14T10:09:25.079Z,8492
2017-09-14T10:10:25.114Z,7992
2017-09-14T10:11:25.061Z,7548
2017-09-14T10:12:24.429Z,6860
2017-09-14T10:13:24.387Z,7196
2017-09-14T10:14:25.391Z,8260
2017-09-14T10:15:24.694Z,8940
2017-09-14T10:16:25.040Z,9060
2017-09-14T10:17:24.686Z,8512
2017-09-14T10:18:24.672Z,7868
2017-09-14T10:19:24.657Z,7568
2017-09-14T10:20:24.330Z,7728
2017-09-14T10:21:24.654Z,8216
2017-09-14T10:22:24.305Z,8628
2017-09-14T10:23:25.277Z,8112
2017-09-14T10:24:24.627Z,7800
2017-09-14T10:25:24.933Z,8176
2017-09-14T10:26:24.953Z,8204
2017-09-14T10:27:24.588Z,8408
2017-09-14T10:28:24.597Z,9588
2017-09-14T10:29:24.608Z,11372
2017-09-14T10:30:24.256Z,11948
2017-09-14T10:31:24.514Z,11428
2017-09-14T10:32:24.547Z,10736
2017-09-14T10:33:24.211Z,9840
2017-09-14T10:34:24.532Z,8988
2017-09-14T10:35:24.195Z,8948
2017-09-14T10:36:24.846Z,8580
2017-09-14T10:37:24.180Z,7820
2017-09-14T10:38:24.189Z,6896
2017-09-14T10:39:24.164Z,6824
2017-09-14T10:40:24.811Z,6864
2017-09-14T10:41:24.819Z,6544
2017-09-14T10:42:25.136Z,6248
2017-09-14T10:43:24.814Z,6760
2017-09-14T10:44:24.459Z,7320
2017-09-14T10:45:24.478Z,7440
2017-09-14T10:46:24.104Z,7504
2017-09-14T10:47:24.457Z,7888
2017-09-14T10:48:24.428Z,8308
2017-09-14T10:49:24.413Z,8252
2017-09-14T10:50:24.119Z,7944
2017-09-14T10:51:24.280Z,7848
2017-09-14T10:52:24.455Z,6996
2017-09-14T10:53:24.804Z,4820
2017-09-14T10:54:24.827Z,6288
2017-09-14T10:55:24.110Z,7744
2017-09-14T10:56:24.655Z,8472
2017-09-14T10:57:24.296Z,7996
2017-09-14T10:58:24.264Z,7588
2017-09-14T10:59:24.794Z,6828
2017-09-14T11:00:24.245Z,6476
2017-09-14T11:01:24.789Z,6048
2017-09-14T11:02:25.110Z,5336
2017-09-14T11:03:24.685Z,5588
2017-09-14T11:04:24.893Z,6816
2017-09-14T11:05:24.363Z,6788
2017-09-14T11:06:24.631Z,4624
2017-09-14T11:07:24.305Z,5272
2017-09-14T11:08:24.256Z,5100
2017-09-14T11:09:24.263Z,4016
2017-09-14T11:10:24.585Z,3796
2017-09-14T11:11:23.903Z,4092
2017-09-14T11:12:24.237Z,3956
2017-09-14T11:13:24.210Z,2952
2017-09-14T11:14:24.228Z,3128
2017-09-14T11:15:24.520Z,2956
2017-09-14T11:16:23.871Z,4600
2017-09-14T11:17:24.176Z,3832
2017-09-14T11:18:24.179Z,3524
2017-09-14T11:19:24.492Z,3476
2017-09-14T11:20:23.826Z,3480
2017-09-14T11:21:23.835Z,2228
2017-09-14T11:22:23.806Z,3404
2017-09-14T11:23:24.807Z,3096
2017-09-14T11:24:24.137Z,3532
2017-09-14T11:25:23.788Z,4736
2017-09-14T11:26:24.435Z,6020
2017-09-14T11:27:24.089Z,6256
2017-09-14T11:28:24.093Z,6132
2017-09-14T11:29:24.092Z,6228
2017-09-14T11:30:23.735Z,6192
2017-09-14T11:31:24.087Z,5868
2017-09-14T11:32:24.374Z,5460
2017-09-14T11:33:24.379Z,5436
2017-09-14T11:34:24.028Z,5332
2017-09-14T11:35:23.689Z,4728
2017-09-14T11:36:23.682Z,3988
2017-09-14T11:37:24.347Z,4140
2017-09-14T11:38:23.663Z,4948
2017-09-14T11:39:24.319Z,5260
2017-09-14T11:40:23.659Z,5304
2017-09-14T11:41:23.968Z,5020
2017-09-14T11:42:24.283Z,4760
2017-09-14T11:43:24.277Z,4576
2017-09-14T11:44:23.932Z,4880
2017-09-14T11:45:23.596Z,5028
2017-09-14T11:46:24.250Z,4896
2017-09-14T11:47:23.580Z,5160
2017-09-14T11:48:23.937Z,6056
2017-09-14T11:49:23.901Z,6644
2017-09-14T11:50:23.914Z,5376
2017-09-14T11:51:24.229Z,6464
2017-09-14T11:52:23.530Z,6744
2017-09-14T11:53:24.180Z,7404
2017-09-14T11:54:23.844Z,7532
2017-09-14T11:55:23.536Z,6964
2017-09-14T11:56:24.167Z,5704
2017-09-14T11:57:24.160Z,6684
2017-09-14T11:58:23.475Z,7312
2017-09-14T11:59:24.119Z,8048
2017-09-14T12:00:23.784Z,8456
2017-09-14T12:01:23.775Z,6976
2017-09-14T12:02:24.097Z,5884
2017-09-14T12:03:23.428Z,6660
2017-09-14T12:04:23.745Z,6648
2017-09-14T12:05:23.739Z,5196
2017-09-14T12:06:23.729Z,4504
2017-09-14T12:07:23.395Z,4740
2017-09-14T12:08:23.395Z,4432
2017-09-14T12:09:23.374Z,4792
2017-09-14T12:10:24.045Z,5848
2017-09-14T12:11:23.366Z,4740
2017-09-14T12:12:23.344Z,4456
2017-09-14T12:13:23.661Z,5144
2017-09-14T12:14:23.339Z,6660
2017-09-14T12:15:23.320Z,7532
2017-09-14T12:16:23.308Z,8260
2017-09-14T12:17:23.634Z,8620
2017-09-14T12:18:23.623Z,10052
2017-09-14T12:19:23.612Z,11332
2017-09-14T12:20:23.278Z,11112
2017-09-14T12:21:23.280Z,9132
2017-09-14T12:22:23.261Z,5676
2017-09-14T12:23:23.595Z,6584
2017-09-14T12:24:23.923Z,6508
2017-09-14T12:25:23.606Z,6548
2017-09-14T12:26:23.919Z,7740
2017-09-14T12:27:23.869Z,5416
2017-09-14T12:28:23.531Z,6428
2017-09-14T12:29:23.848Z,9240
2017-09-14T12:30:23.183Z,7376
2017-09-14T12:31:23.174Z,5732
2017-09-14T12:32:23.508Z,5144
2017-09-14T12:33:23.481Z,3952
2017-09-14T12:34:23.475Z,3580
2017-09-14T12:35:23.828Z,4152
2017-09-14T12:36:23.126Z,4468
2017-09-14T12:37:23.473Z,4312
2017-09-14T12:38:23.770Z,6684
2017-09-14T12:39:23.756Z,9404
2017-09-14T12:40:23.749Z,10980
2017-09-14T12:41:23.754Z,14356
2017-09-14T12:42:23.415Z,14416
2017-09-14T12:43:23.402Z,11296
2017-09-14T12:44:23.731Z,5396
2017-09-14T12:45:23.054Z,4532
2017-09-14T12:46:23.372Z,6300
2017-09-14T12:47:23.710Z,7004
2017-09-14T12:48:23.696Z,6364
2017-09-14T12:49:23.341Z,8104
2017-09-14T12:50:23.357Z,8008
2017-09-14T12:51:23.323Z,7916
2017-09-14T12:52:23.322Z,8636
2017-09-14T12:53:23.179Z,10496
2017-09-14T12:54:23.632Z,10180
2017-09-14T12:55:22.967Z,11804
2017-09-14T12:56:23.283Z,11432
2017-09-14T12:57:22.947Z,11472
2017-09-14T12:58:23.261Z,10192
2017-09-14T12:59:23.927Z,9144
2017-09-14T13:00:23.932Z,11812
2017-09-14T13:01:22.906Z,12020
2017-09-14T13:02:23.230Z,8408
2017-09-14T13:03:22.913Z,6544
2017-09-14T13:04:23.592Z,5848
2017-09-14T13:05:23.204Z,3928
2017-09-14T13:06:22.870Z,5284
2017-09-14T13:07:23.202Z,6632
2017-09-14T13:08:22.853Z,7120
2017-09-14T13:09:23.199Z,6480
2017-09-14T13:10:22.853Z,6560
2017-09-14T13:11:22.819Z,6804
2017-09-14T13:12:22.825Z,7588
2017-09-14T13:13:23.462Z,7476
2017-09-14T13:14:23.123Z,6564
2017-09-14T13:15:22.783Z,5224
2017-09-14T13:16:22.792Z,5020
2017-09-14T13:17:23.102Z,2996
2017-09-14T13:18:23.429Z,2024
2017-09-14T13:19:22.750Z,3604
2017-09-14T13:20:22.754Z,3816
2017-09-14T13:21:23.082Z,3088
2017-09-14T13:22:22.732Z,2604
2017-09-14T13:23:23.048Z,3764
2017-09-14T13:24:23.384Z,5216
2017-09-14T13:25:23.059Z,5156
2017-09-14T13:26:23.026Z,6972
2017-09-14T13:27:22.680Z,6104
2017-09-14T13:28:23.007Z,7520
2017-09-14T13:29:22.663Z,4856
2017-09-14T13:30:23.341Z,3408
2017-09-14T13:31:23.301Z,4028
2017-09-14T13:32:23.305Z,3532
2017-09-14T13:33:22.622Z,4248
2017-09-14T13:34:23.621Z,3056
2017-09-14T13:35:22.947Z,5148
2017-09-14T13:36:22.929Z,3152
2017-09-14T13:37:23.260Z,4012
2017-09-14T13:38:22.592Z,4780
2017-09-14T13:39:23.246Z,4036
2017-09-14T13:40:22.562Z,2968
2017-09-14T13:41:22.597Z,4140
2017-09-14T13:42:22.540Z,3348
2017-09-14T13:43:22.873Z,5152
2017-09-14T13:44:23.222Z,5312
2017-09-14T13:45:22.856Z,7500
2017-09-14T13:46:22.830Z,4840
2017-09-14T13:47:23.161Z,4420